Time;durP1;ratioP1;P1;durP2;ratioP2;P2;SDS_P1;SDS_P2;PMS_P1;PMS_P2;Temp;Humidity;BMP_temperature;BMP_pressure;BME280_temperature;BME280_humidity;BME280_pressure;Samples;Min_cycle;Max_cycle;Signal;HPM_P1;HPM_P2
2022/12/11 00:02:22;;;;;;;33.00;15.52;;;;;;;0.50;79.78;99400.94;4983905;28;20039;-86
2022/12/11 00:04:49;;;;;;;27.13;14.60;;;;;;;0.58;79.70;99407.41;4966693;28;20047;-87
2022/12/11 00:07:15;;;;;;;35.17;16.27;;;;;;;0.64;78.73;99404.47;4980354;28;20054;-87
2022/12/11 00:09:42;;;;;;;30.33;15.52;;;;;;;0.58;79.54;99401.34;4971070;28;20102;-86
2022/12/11 00:12:09;;;;;;;34.20;16.92;;;;;;;0.62;79.43;99408.09;4984420;28;20129;-86
2022/12/11 00:14:35;;;;;;;33.63;17.17;;;;;;;0.72;79.17;99408.47;4966755;28;20444;-87
2022/12/11 00:17:02;;;;;;;34.03;16.95;;;;;;;0.70;79.27;99407.69;4963757;28;20112;-86
2022/12/11 00:19:29;;;;;;;32.72;16.88;;;;;;;0.68;78.84;99407.75;4938194;28;20495;-87
2022/12/11 00:21:56;;;;;;;33.58;17.00;;;;;;;0.69;78.75;99405.97;4968458;28;20057;-87
2022/12/11 00:24:22;;;;;;;30.50;16.60;;;;;;;0.65;78.79;99405.31;4950084;28;20177;-87
2022/12/11 00:26:49;;;;;;;30.77;15.50;;;;;;;0.71;79.12;99399.75;4936119;28;20134;-88
2022/12/11 00:29:16;;;;;;;34.10;16.95;;;;;;;0.74;79.10;99406.56;4968384;28;20038;-87
2022/12/11 00:31:43;;;;;;;32.80;16.00;;;;;;;0.75;79.07;99409.13;4977132;28;20569;-87
2022/12/11 00:34:10;;;;;;;31.50;16.27;;;;;;;0.75;78.67;99401.28;4981881;28;20053;-87
2022/12/11 00:40:56;;;;;;;33.75;15.68;;;;;;;0.71;78.16;99394.53;4928681;28;20062;-86
2022/12/11 00:43:23;;;;;;;36.40;17.70;;;;;;;0.71;78.10;99396.28;4959103;28;20061;-87
2022/12/11 00:45:50;;;;;;;32.08;15.73;;;;;;;0.68;78.04;99399.91;4948298;28;20046;-87
2022/12/11 00:48:16;;;;;;;31.02;15.10;;;;;;;0.64;78.50;99411.50;4968142;28;20096;-87
2022/12/11 00:54:36;;;;;;;32.25;14.82;;;;;;;0.55;79.50;99398.91;4908699;28;20563;-88
2022/12/11 00:57:03;;;;;;;29.83;14.73;;;;;;;0.56;79.26;99398.84;5001383;28;20045;-88
2022/12/11 01:02:59;;;;;;;32.42;15.18;;;;;;;0.46;79.41;99404.63;4926830;28;20203;-87
2022/12/11 01:05:26;;;;;;;29.42;15.90;;;;;;;0.39;79.36;99393.69;4972247;28;20049;-87
2022/12/11 01:07:52;;;;;;;29.65;15.10;;;;;;;0.38;79.46;99407.63;4931654;28;20096;-87
2022/12/11 01:10:25;;;;;;;30.95;15.27;;;;;;;0.39;79.39;99402.34;4931468;28;20046;-87
2022/12/11 01:12:55;;;;;;;28.38;14.75;;;;;;;0.33;79.53;99405.31;4945799;28;20519;-86
2022/12/11 01:15:25;;;;;;;32.78;14.43;;;;;;;0.36;79.60;99412.13;4934002;28;20388;-85
2022/12/11 01:17:52;;;;;;;32.13;15.00;;;;;;;0.36;79.66;99402.53;4964500;28;20100;-87
2022/12/11 01:20:20;;;;;;;27.90;14.38;;;;;;;0.34;79.90;99401.75;4949106;28;20050;-87
2022/12/11 01:22:47;;;;;;;31.60;15.40;;;;;;;0.38;79.64;99402.41;4959656;28;20042;-87
2022/12/11 01:25:14;;;;;;;30.38;16.15;;;;;;;0.33;80.12;99409.66;4957709;28;20043;-87
2022/12/11 01:27:41;;;;;;;31.90;16.40;;;;;;;0.40;80.12;99403.19;4958062;28;20062;-87
2022/12/11 01:30:08;;;;;;;32.58;15.77;;;;;;;0.33;80.66;99412.28;4932366;28;20046;-87
2022/12/11 01:32:35;;;;;;;29.73;13.82;;;;;;;0.29;80.67;99410.75;4947649;28;20042;-87
2022/12/11 01:35:04;;;;;;;26.33;14.23;;;;;;;0.30;80.96;99409.81;4939047;28;20054;-87
2022/12/11 01:37:30;;;;;;;31.67;15.50;;;;;;;0.30;80.50;99405.44;4949042;28;20489;-87
2022/12/11 01:39:59;;;;;;;33.33;16.67;;;;;;;0.25;80.98;99411.84;4994572;28;20058;-87
2022/12/11 01:42:28;;;;;;;33.13;16.58;;;;;;;0.31;80.98;99407.16;4997974;28;20049;-87
2022/12/11 01:45:26;;;;;;;32.35;15.10;;;;;;;0.22;81.68;99415.47;4978818;28;20137;-88
2022/12/11 01:48:10;;;;;;;32.45;15.90;;;;;;;0.16;81.91;99411.41;4909875;28;20053;-88
2022/12/11 01:50:41;;;;;;;30.55;17.15;;;;;;;0.33;81.32;99407.91;4942962;28;20465;-86
2022/12/11 01:53:09;;;;;;;34.38;16.45;;;;;;;0.29;81.54;99413.38;4994814;28;20042;-87
2022/12/11 01:55:37;;;;;;;27.90;15.18;;;;;;;0.33;81.53;99410.53;4977893;28;20062;-87
2022/12/11 01:58:05;;;;;;;36.63;16.90;;;;;;;0.34;81.00;99416.59;4969324;28;20054;-87
2022/12/11 02:00:32;;;;;;;31.88;15.95;;;;;;;0.37;81.01;99405.97;4965738;28;20058;-87
2022/12/11 02:02:58;;;;;;;34.58;16.85;;;;;;;0.35;81.13;99411.25;4996107;28;20646;-87
2022/12/11 02:05:25;;;;;;;30.67;15.80;;;;;;;0.45;80.82;99408.16;4973905;28;20442;-87
2022/12/11 02:08:01;;;;;;;33.72;16.25;;;;;;;0.34;80.71;99401.75;4968271;28;20051;-87
2022/12/11 02:10:39;;;;;;;33.75;16.38;;;;;;;0.39;80.68;99404.13;4990458;28;20070;-88
2022/12/11 02:13:12;;;;;;;32.60;15.75;;;;;;;0.35;81.10;99415.66;4975963;28;20046;-87
2022/12/11 02:15:59;;;;;;;32.92;15.75;;;;;;;0.35;81.18;99415.66;4980793;28;20503;-87
2022/12/11 02:18:34;;;;;;;33.05;16.05;;;;;;;0.36;80.79;99417.34;4897916;28;20054;-87
2022/12/11 02:21:16;;;;;;;31.05;16.02;;;;;;;0.36;80.83;99406.91;4943407;28;20438;-86
2022/12/11 02:24:03;;;;;;;30.63;16.00;;;;;;;0.36;81.17;99409.53;4964444;28;20049;-87
2022/12/11 02:27:01;;;;;;;30.85;15.85;;;;;;;0.28;81.17;99404.69;4942633;28;20052;-87
2022/12/11 02:30:15;;;;;;;32.42;16.75;;;;;;;0.34;80.72;99413.97;4928952;28;20039;-87
2022/12/11 02:32:48;;;;;;;29.33;15.38;;;;;;;0.37;80.69;99417.25;4915308;28;20400;-87
2022/12/11 02:35:19;;;;;;;33.70;17.20;;;;;;;0.39;80.45;99425.03;4929762;28;20047;-87
2022/12/11 02:37:46;;;;;;;35.20;18.02;;;;;;;0.37;79.98;99432.94;4933217;28;20039;-87
2022/12/11 02:40:18;;;;;;;34.30;17.77;;;;;;;0.36;79.77;99433.88;4978909;28;20057;-86
2022/12/11 02:42:46;;;;;;;35.92;17.02;;;;;;;0.25;80.07;99440.56;4968903;28;20081;-87
2022/12/11 02:45:14;;;;;;;37.35;18.02;;;;;;;0.30;79.89;99442.00;4993677;28;20640;-84
2022/12/11 02:47:42;;;;;;;34.30;17.63;;;;;;;0.30;80.16;99438.56;4954562;28;20052;-87
2022/12/11 02:50:12;;;;;;;33.35;17.08;;;;;;;0.33;80.21;99433.16;4977885;28;20063;-87
2022/12/11 02:52:40;;;;;;;38.25;18.92;;;;;;;0.31;80.37;99424.59;4959840;28;20453;-87
2022/12/11 02:55:09;;;;;;;35.05;17.05;;;;;;;0.34;80.39;99427.03;4968861;28;20042;-87
2022/12/11 02:58:07;;;;;;;36.63;17.52;;;;;;;0.27;80.40;99426.50;5000890;28;20047;-86
2022/12/11 03:00:33;;;;;;;35.75;17.30;;;;;;;0.36;80.02;99430.41;4923457;28;20556;-87
2022/12/11 03:03:00;;;;;;;35.92;17.42;;;;;;;0.36;80.15;99435.63;4966041;28;20093;-88
2022/12/11 03:05:28;;;;;;;38.00;18.30;;;;;;;0.31;81.08;99432.44;4980674;28;20066;-88
2022/12/11 03:07:55;;;;;;;35.55;16.80;;;;;;;0.30;81.68;99430.72;4970246;28;20054;-87
2022/12/11 03:10:22;;;;;;;35.30;17.23;;;;;;;0.35;81.28;99428.72;4972276;28;20097;-87
2022/12/11 03:13:38;;;;;;;29.27;16.50;;;;;;;0.16;82.26;99421.84;4985691;28;20052;-87
2022/12/11 03:16:23;;;;;;;35.25;17.10;;;;;;;0.24;82.13;99426.66;4946824;28;20051;-87
2022/12/11 03:19:19;;;;;;;38.78;17.92;;;;;;;0.27;82.11;99434.34;4929517;28;20114;-86
2022/12/11 03:21:52;;;;;;;35.78;17.42;;;;;;;0.29;81.51;99445.56;4904754;28;20122;-87
2022/12/11 03:24:24;;;;;;;34.13;17.35;;;;;;;0.37;80.74;99445.97;4954345;28;20039;-87
2022/12/11 03:26:55;;;;;;;36.75;16.55;;;;;;;0.33;80.81;99441.00;4970402;28;20049;-87
2022/12/11 03:33:39;;;;;;;37.88;18.05;;;;;;;0.36;82.21;99436.47;4959499;28;20359;-86
2022/12/11 03:36:09;;;;;;;34.67;17.23;;;;;;;0.31;82.26;99428.03;4974364;28;20054;-85
2022/12/11 03:38:48;;;;;;;33.28;17.23;;;;;;;0.34;82.56;99432.25;4982279;28;20124;-85
2022/12/11 03:41:16;;;;;;;36.60;18.08;;;;;;;0.37;82.49;99429.47;4968490;28;20077;-88
2022/12/11 03:43:44;;;;;;;34.17;17.80;;;;;;;0.43;81.80;99426.53;4983550;28;20652;-88
2022/12/11 03:46:12;;;;;;;34.15;16.70;;;;;;;0.49;81.72;99425.38;4976037;28;20133;-88
2022/12/11 03:48:41;;;;;;;34.10;16.88;;;;;;;0.52;81.21;99412.16;4947147;28;20042;-87
2022/12/11 03:51:08;;;;;;;30.65;16.52;;;;;;;0.55;80.99;99417.19;4959827;28;20059;-86
2022/12/11 03:53:35;;;;;;;30.67;16.70;;;;;;;0.53;80.86;99419.88;4949276;28;20157;-88
2022/12/11 03:56:05;;;;;;;32.95;16.60;;;;;;;0.46;80.52;99421.16;4950130;28;20051;-88
2022/12/11 03:58:32;;;;;;;32.20;16.23;;;;;;;0.46;81.30;99429.00;4948530;28;20057;-88
2022/12/11 04:00:58;;;;;;;35.50;18.45;;;;;;;0.43;81.08;99429.13;4946732;28;20053;-87
2022/12/11 04:03:25;;;;;;;29.75;15.77;;;;;;;0.48;80.86;99428.91;4965082;28;20070;-87
2022/12/11 04:05:53;;;;;;;35.40;16.92;;;;;;;0.49;80.67;99425.38;4936646;28;20042;-88
2022/12/11 04:08:21;;;;;;;35.85;17.27;;;;;;;0.50;80.66;99432.28;4941152;28;20058;-87
2022/12/11 04:11:33;;;;;;;33.10;16.25;;;;;;;0.48;81.01;99424.50;4933878;28;20047;-88
2022/12/11 04:13:40;;;;;;;33.63;17.00;;;;;;;0.51;81.13;99423.50;4950343;28;20406;-87
2022/12/11 04:16:06;;;;;;;34.58;16.90;;;;;;;0.49;81.31;99418.38;4933842;28;20137;-88
2022/12/11 04:24:15;;;;;;;34.08;17.33;;;;;;;0.51;81.14;99424.38;4955710;28;20605;-87
2022/12/11 04:26:46;;;;;;;38.55;17.67;;;;;;;0.38;82.03;99426.78;4995247;28;20046;-87
2022/12/11 04:29:13;;;;;;;37.80;17.42;;;;;;;0.46;81.73;99422.91;4933571;28;20042;-87
2022/12/11 04:31:40;;;;;;;30.33;16.35;;;;;;;0.42;81.59;99420.47;4944165;28;20050;-88
2022/12/11 04:34:07;;;;;;;36.13;18.00;;;;;;;0.49;81.19;99421.00;4954380;28;20043;-88
2022/12/11 04:36:34;;;;;;;35.42;18.02;;;;;;;0.48;80.92;99419.28;4946959;28;20622;-87
2022/12/11 04:39:01;;;;;;;35.13;17.02;;;;;;;0.39;81.48;99420.63;4973916;28;20054;-88
2022/12/11 04:41:28;;;;;;;33.13;16.80;;;;;;;0.47;81.93;99412.38;4953025;28;20050;-87
2022/12/11 04:43:54;;;;;;;32.67;16.80;;;;;;;0.45;81.48;99406.41;4967608;28;20050;-84
2022/12/11 04:46:23;;;;;;;34.10;16.75;;;;;;;0.45;81.14;99403.78;4980606;28;20074;-88
2022/12/11 04:48:50;;;;;;;32.33;16.42;;;;;;;0.42;82.19;99403.94;4979554;28;20053;-88
2022/12/11 04:51:23;;;;;;;38.20;18.08;;;;;;;0.41;82.54;99405.72;4980958;28;20584;-87
2022/12/11 04:53:50;;;;;;;35.67;17.17;;;;;;;0.44;82.19;99394.28;4964838;28;20050;-87
2022/12/11 04:56:16;;;;;;;39.55;19.15;;;;;;;0.39;82.48;99396.28;4954999;28;20057;-85
2022/12/11 04:58:44;;;;;;;38.38;19.08;;;;;;;0.41;82.77;99394.44;4973778;28;20046;-86
2022/12/11 05:01:15;;;;;;;42.35;19.27;;;;;;;0.42;82.22;99396.94;4968705;28;20097;-86
2022/12/11 05:03:42;;;;;;;36.13;18.92;;;;;;;0.45;82.54;99395.13;4982003;28;20042;-86
2022/12/11 05:06:10;;;;;;;37.92;19.23;;;;;;;0.46;82.80;99399.41;4988646;28;20141;-87
2022/12/11 05:08:39;;;;;;;36.78;17.95;;;;;;;0.48;82.40;99406.22;5014630;28;20499;-87
2022/12/11 05:11:08;;;;;;;38.90;19.02;;;;;;;0.41;82.17;99412.72;4981819;28;20053;-86
2022/12/11 05:13:35;;;;;;;39.90;19.85;;;;;;;0.40;81.91;99404.03;4978648;28;20050;-87
2022/12/11 05:16:04;;;;;;;33.78;17.70;;;;;;;0.41;81.55;99402.28;5010600;28;20050;-86
2022/12/11 05:18:31;;;;;;;39.30;18.42;;;;;;;0.42;81.96;99407.41;4950654;28;20072;-87
2022/12/11 05:21:03;;;;;;;41.20;20.05;;;;;;;0.43;81.85;99408.25;4982641;28;20502;-87
2022/12/11 05:23:30;;;;;;;38.35;18.20;;;;;;;0.47;82.27;99407.16;4964483;28;20126;-84
2022/12/11 05:25:59;;;;;;;41.00;19.70;;;;;;;0.43;83.20;99405.63;5000295;28;20494;-86
2022/12/11 05:28:30;;;;;;;40.42;19.30;;;;;;;0.40;83.32;99406.63;4947406;28;20047;-86
2022/12/11 05:31:05;;;;;;;44.80;21.25;;;;;;;0.39;83.74;99412.78;4978694;28;20561;-87
2022/12/11 05:33:32;;;;;;;36.15;18.35;;;;;;;0.45;82.95;99397.72;4978844;28;20126;-86
2022/12/11 05:35:59;;;;;;;41.30;19.00;;;;;;;0.43;83.16;99403.03;4982817;28;20125;-87
2022/12/11 05:38:26;;;;;;;46.17;19.75;;;;;;;0.49;82.75;99404.47;4964494;28;20125;-87
2022/12/11 05:41:04;;;;;;;38.53;18.42;;;;;;;0.43;82.67;99406.50;4979663;28;20046;-86
2022/12/11 05:43:33;;;;;;;44.25;19.65;;;;;;;0.41;82.84;99402.28;4977538;28;20050;-87
2022/12/11 05:46:10;;;;;;;40.45;18.42;;;;;;;0.38;82.94;99403.28;5002486;28;20045;-86
2022/12/11 05:48:38;;;;;;;44.08;18.95;;;;;;;0.43;83.29;99408.25;4979892;28;20573;-86
2022/12/11 05:51:07;;;;;;;39.10;17.98;;;;;;;0.43;82.41;99405.63;5016504;28;20043;-86
2022/12/11 05:53:35;;;;;;;43.60;19.13;;;;;;;0.40;82.25;99405.81;4964084;28;20054;-85
2022/12/11 05:56:08;;;;;;;39.58;18.92;;;;;;;0.33;82.95;99407.91;4999578;28;20050;-85
2022/12/11 05:58:35;;;;;;;38.55;19.08;;;;;;;0.42;82.96;99401.34;4972388;28;20128;-86
2022/12/11 06:01:06;;;;;;;45.85;19.83;;;;;;;0.33;83.67;99399.22;4967804;28;20407;-86
2022/12/11 06:03:33;;;;;;;40.17;19.42;;;;;;;0.40;83.02;99401.41;4959144;28;20047;-86
2022/12/11 06:06:01;;;;;;;39.03;18.27;;;;;;;0.41;82.94;99397.06;4988761;28;20046;-86
2022/12/11 06:08:28;;;;;;;41.40;19.67;;;;;;;0.38;83.47;99386.75;4947589;28;20168;-86
2022/12/11 06:10:55;;;;;;;38.60;19.02;;;;;;;0.41;83.28;99389.22;4967545;28;20047;-86
2022/12/11 06:13:22;;;;;;;34.75;18.00;;;;;;;0.42;83.52;99388.28;4993780;28;20479;-86
2022/12/11 06:15:48;;;;;;;41.80;18.08;;;;;;;0.37;83.65;99390.28;4957966;28;20072;-86
2022/12/11 06:18:15;;;;;;;42.83;20.52;;;;;;;0.37;83.93;99382.47;4968556;28;20104;-87
2022/12/11 06:20:42;;;;;;;40.03;19.05;;;;;;;0.37;84.02;99374.63;4947836;28;20125;-86
2022/12/11 06:23:08;;;;;;;43.97;20.20;;;;;;;0.36;83.82;99379.00;4954562;28;20094;-86
2022/12/11 06:25:38;;;;;;;38.40;18.25;;;;;;;0.35;83.84;99373.88;4969052;28;20096;-87
2022/12/11 06:28:04;;;;;;;38.88;17.67;;;;;;;0.32;83.51;99380.09;4968665;28;20514;-87
2022/12/11 06:30:31;;;;;;;43.75;20.23;;;;;;;0.32;83.04;99376.66;4965144;28;20101;-86
2022/12/11 06:33:05;;;;;;;37.17;17.38;;;;;;;0.28;82.87;99372.50;4973573;28;20054;-86
2022/12/11 06:35:32;;;;;;;41.60;19.30;;;;;;;0.26;82.57;99363.94;4973074;28;20035;-86
2022/12/11 06:38:07;;;;;;;40.90;19.40;;;;;;;0.34;82.36;99369.56;4985948;28;20046;-86
2022/12/11 06:40:33;;;;;;;35.38;17.52;;;;;;;0.30;82.68;99368.03;4982120;28;20051;-85
2022/12/11 06:43:00;;;;;;;41.60;19.20;;;;;;;0.35;82.21;99372.09;4999488;28;22721;-85
2022/12/11 06:45:27;;;;;;;40.22;18.73;;;;;;;0.36;82.43;99367.72;4982039;28;20121;-86
2022/12/11 06:47:53;;;;;;;37.45;17.98;;;;;;;0.26;82.93;99375.22;4985100;28;20050;-86
2022/12/11 06:50:20;;;;;;;41.13;18.50;;;;;;;0.31;82.65;99365.38;4971150;28;20576;-86
2022/12/11 06:52:47;;;;;;;39.03;17.83;;;;;;;0.30;82.33;99365.44;4969579;28;20043;-86
2022/12/11 06:55:13;;;;;;;39.08;18.27;;;;;;;0.27;83.36;99358.59;4969441;28;20054;-86
2022/12/11 06:57:40;;;;;;;35.35;17.08;;;;;;;0.37;82.45;99358.97;4983701;28;20129;-87
2022/12/11 07:00:08;;;;;;;39.08;17.60;;;;;;;0.37;81.67;99358.97;4971489;28;20168;-86
2022/12/11 07:02:34;;;;;;;35.78;16.83;;;;;;;0.35;81.37;99364.25;4973747;28;20046;-85
2022/12/11 07:05:01;;;;;;;38.20;17.50;;;;;;;0.37;81.47;99367.63;4995150;28;20162;-86
2022/12/11 07:07:28;;;;;;;38.30;17.42;;;;;;;0.37;82.22;99378.06;4988485;28;20056;-86
2022/12/11 07:09:54;;;;;;;43.10;20.05;;;;;;;0.34;82.39;99372.19;4973929;28;20054;-86
2022/12/11 07:12:21;;;;;;;45.70;18.50;;;;;;;0.30;82.15;99373.25;4983539;28;20398;-86
2022/12/11 07:14:48;;;;;;;37.17;17.00;;;;;;;0.34;82.39;99365.19;4967558;28;20072;-86
2022/12/11 07:17:15;;;;;;;41.05;18.58;;;;;;;0.27;82.49;99371.66;4968850;28;20116;-86
2022/12/11 07:19:41;;;;;;;44.33;19.52;;;;;;;0.26;82.59;99375.22;4980196;28;20102;-87
2022/12/11 07:22:08;;;;;;;42.03;18.13;;;;;;;0.38;82.30;99387.63;4954822;28;20065;-86
2022/12/11 07:24:35;;;;;;;37.03;18.13;;;;;;;0.37;81.89;99385.91;4968354;28;20100;-85
2022/12/11 07:27:01;;;;;;;38.42;18.00;;;;;;;0.38;82.12;99389.38;4994479;28;20445;-88
2022/12/11 07:29:28;;;;;;;38.25;17.35;;;;;;;0.41;81.56;99386.59;4970993;28;20042;-87
2022/12/11 07:31:55;;;;;;;34.70;15.50;;;;;;;0.43;81.48;99388.22;4985096;28;20113;-88
2022/12/11 07:34:22;;;;;;;34.35;14.90;;;;;;;0.35;81.39;99385.16;4970085;28;20053;-88
2022/12/11 07:36:49;;;;;;;40.65;17.38;;;;;;;0.43;80.60;99384.72;4960356;28;20050;-87
2022/12/11 07:39:15;;;;;;;37.08;17.00;;;;;;;0.42;81.36;99383.06;4969583;28;20059;-88
2022/12/11 07:41:42;;;;;;;39.00;17.40;;;;;;;0.42;81.07;99386.50;4994964;28;20045;-87
2022/12/11 07:44:13;;;;;;;33.38;15.07;;;;;;;0.41;81.03;99387.44;4976632;28;20441;-87
2022/12/11 07:46:40;;;;;;;40.30;16.50;;;;;;;0.38;80.92;99386.75;4983246;28;20246;-87
2022/12/11 07:49:07;;;;;;;37.72;16.17;;;;;;;0.34;80.34;99398.31;4998630;28;20124;-88
2022/12/11 07:51:35;;;;;;;35.75;15.88;;;;;;;0.40;80.20;99398.81;4989469;28;20053;-87
2022/12/11 07:54:09;;;;;;;37.83;16.27;;;;;;;0.42;80.07;99404.78;4987612;28;20124;-86
2022/12/11 07:56:36;;;;;;;37.75;16.20;;;;;;;0.36;79.86;99394.69;4985538;28;20049;-88
2022/12/11 07:59:04;;;;;;;36.22;15.48;;;;;;;0.36;80.18;99412.97;4989365;28;20041;-85
2022/12/11 08:01:36;;;;;;;32.13;15.60;;;;;;;0.41;80.21;99413.56;4992584;28;20053;-86
2022/12/11 08:04:08;;;;;;;35.33;16.00;;;;;;;0.37;80.58;99406.81;4974239;28;20069;-87
2022/12/11 08:06:37;;;;;;;36.00;16.15;;;;;;;0.38;80.37;99407.63;4970802;28;20046;-87
2022/12/11 08:09:06;;;;;;;33.90;15.68;;;;;;;0.48;80.29;99403.59;4989848;28;20497;-87
2022/12/11 08:11:33;;;;;;;38.88;15.85;;;;;;;0.38;79.83;99402.41;4966946;28;20074;-86
2022/12/11 08:14:01;;;;;;;40.50;17.38;;;;;;;0.42;79.72;99403.94;4969499;28;20053;-87
2022/12/11 08:16:28;;;;;;;38.75;16.92;;;;;;;0.43;80.18;99403.03;4984899;28;20050;-87
2022/12/11 08:18:55;;;;;;;35.42;16.30;;;;;;;0.39;79.89;99398.91;4950762;28;20425;-87
2022/12/11 08:21:24;;;;;;;36.97;17.13;;;;;;;0.37;79.90;99405.97;4988782;28;20406;-87
2022/12/11 08:23:52;;;;;;;38.50;16.33;;;;;;;0.33;80.07;99407.91;4966108;28;20098;-87
2022/12/11 08:26:24;;;;;;;40.00;18.23;;;;;;;0.35;80.30;99406.03;4934555;28;20039;-89
2022/12/11 08:28:51;;;;;;;37.88;16.33;;;;;;;0.39;80.12;99394.50;4947754;28;20050;-87
2022/12/11 08:31:18;;;;;;;42.47;17.42;;;;;;;0.40;80.50;99388.34;4953757;28;20046;-87
2022/12/11 08:33:46;;;;;;;35.90;16.63;;;;;;;0.47;80.03;99391.50;4955511;28;20426;-86
2022/12/11 08:36:16;;;;;;;36.58;16.52;;;;;;;0.46;79.98;99387.22;4983801;28;20046;-87
2022/12/11 08:38:43;;;;;;;40.08;17.58;;;;;;;0.45;80.22;99382.06;4951100;28;20066;-87
2022/12/11 08:41:21;;;;;;;35.25;15.48;;;;;;;0.37;80.67;99380.69;4978156;28;20047;-87
2022/12/11 08:43:48;;;;;;;39.25;17.60;;;;;;;0.40;80.71;99385.75;4918027;28;20049;-86
2022/12/11 08:46:15;;;;;;;46.95;19.13;;;;;;;0.47;80.88;99383.66;4932707;28;20129;-87
2022/12/11 08:48:42;;;;;;;42.67;19.90;;;;;;;0.43;80.75;99389.97;4932345;28;20537;-87
2022/12/11 08:51:12;;;;;;;41.03;17.92;;;;;;;0.49;80.69;99396.66;4984295;28;20042;-87
2022/12/11 08:53:39;;;;;;;37.42;17.45;;;;;;;0.40;80.19;99397.97;4987181;28;20125;-87
2022/12/11 08:56:09;;;;;;;37.53;16.95;;;;;;;0.39;80.41;99391.91;4996007;28;20066;-89
2022/12/11 08:58:36;;;;;;;44.15;19.48;;;;;;;0.45;81.22;99398.56;4954911;28;20049;-87
2022/12/11 09:01:11;;;;;;;43.13;18.52;;;;;;;0.39;80.92;99389.28;4918753;28;20506;-88
2022/12/11 09:03:39;;;;;;;40.53;17.92;;;;;;;0.53;80.70;99385.91;4951134;28;20049;-88
2022/12/11 09:06:08;;;;;;;43.28;19.60;;;;;;;0.58;80.56;99380.44;4948390;28;20569;-89
2022/12/11 09:08:35;;;;;;;41.30;17.67;;;;;;;0.61;80.65;99388.97;4986123;28;20465;-88
2022/12/11 09:11:10;;;;;;;34.25;16.70;;;;;;;0.58;80.08;99385.69;4996229;28;20046;-87
2022/12/11 09:13:38;;;;;;;40.97;17.77;;;;;;;0.58;79.94;99393.50;4958048;28;20046;-89
2022/12/11 09:16:13;;;;;;;41.72;16.52;;;;;;;0.62;79.98;99397.66;4952770;28;20109;-88
2022/12/11 09:18:40;;;;;;;39.00;16.13;;;;;;;0.65;80.01;99394.88;4981699;28;20450;-88
2022/12/11 09:21:10;;;;;;;41.35;17.52;;;;;;;0.64;79.68;99409.72;4964446;28;20046;-88
2022/12/11 09:23:38;;;;;;;40.47;17.92;;;;;;;0.65;79.96;99403.53;4946738;28;20168;-87
2022/12/11 09:26:09;;;;;;;43.38;17.65;;;;;;;0.64;80.01;99401.03;4968192;28;20047;-88
2022/12/11 09:28:37;;;;;;;39.75;15.55;;;;;;;0.65;80.26;99403.53;4975041;28;20141;-87
2022/12/11 09:31:15;;;;;;;37.72;15.98;;;;;;;0.62;80.07;99393.28;4937154;28;20507;-87
2022/12/11 09:33:42;;;;;;;40.13;17.80;;;;;;;0.70;80.04;99392.00;4958252;28;20130;-87
2022/12/11 09:36:10;;;;;;;41.85;17.10;;;;;;;0.74;79.87;99401.34;4968450;28;20051;-88
2022/12/11 09:38:38;;;;;;;35.05;17.42;;;;;;;0.68;80.18;99406.94;4916337;28;20071;-88
2022/12/11 09:41:33;;;;;;;41.80;17.35;;;;;;;0.62;80.00;99405.50;4926636;28;20047;-88
2022/12/11 09:44:29;;;;;;;37.50;15.43;;;;;;;0.65;79.80;99397.47;4898816;28;20078;-88
2022/12/11 09:46:56;;;;;;;37.63;16.38;;;;;;;0.71;80.20;99401.53;4935970;28;20467;-89
2022/12/11 09:49:38;;;;;;;39.08;17.27;;;;;;;0.73;79.85;99395.28;4970984;28;20069;-89
2022/12/11 09:52:36;;;;;;;44.42;17.42;;;;;;;0.66;80.12;99393.94;4941846;28;20066;-87
2022/12/11 09:55:28;;;;;;;38.05;15.95;;;;;;;0.59;80.05;99385.59;4963614;28;20050;-87
2022/12/11 09:58:21;;;;;;;37.15;16.05;;;;;;;0.60;80.23;99387.28;4922464;28;20046;-88
2022/12/11 10:00:53;;;;;;;;;;;;;;;0.56;80.30;99382.28;4962909;28;20042;-89
2022/12/11 10:03:27;;;;;;;;;;;;;;;0.50;80.64;99386.09;4983573;28;20031;-87
2022/12/11 10:06:17;;;;;;;36.25;14.55;;;;;;;0.56;80.58;99387.53;4937657;28;19933;-87
2022/12/11 10:09:10;;;;;;;37.37;16.00;;;;;;;0.58;80.58;99389.13;4902828;28;20234;-87
2022/12/11 10:11:44;;;;;;;40.17;17.80;;;;;;;0.65;80.49;99389.66;4955215;28;21068;-87
2022/12/11 10:14:50;;;;;;;38.35;16.17;;;;;;;0.64;80.26;99377.53;4947388;28;20039;-86
2022/12/11 10:17:31;;;;;;;36.05;16.02;;;;;;;0.63;80.06;99381.03;4930916;28;20055;-87
2022/12/11 10:20:13;;;;;;;37.63;16.42;;;;;;;0.63;80.32;99375.81;4885444;28;20047;-90
2022/12/11 10:22:40;;;;;;;37.92;15.75;;;;;;;0.64;80.10;99369.69;4938379;28;20474;-90
2022/12/11 10:25:18;;;;;;;44.25;18.13;;;;;;;0.56;80.36;99375.31;4898836;28;20417;-89
2022/12/11 10:27:56;;;;;;;37.67;16.63;;;;;;;0.50;80.34;99373.03;4921500;28;20047;-91
2022/12/11 10:30:34;;;;;;;41.33;17.40;;;;;;;0.49;79.94;99379.19;4921963;28;20042;-92
2022/12/11 10:33:41;;;;;;;41.40;17.98;;;;;;;0.49;80.57;99373.13;4912875;28;20208;-92
2022/12/11 10:36:17;;;;;;;40.03;17.08;;;;;;;0.51;80.91;99369.50;4906025;28;20047;-87
2022/12/11 10:38:46;;;;;;;40.85;15.77;;;;;;;0.57;80.82;99370.94;4917003;28;20054;-87
2022/12/11 10:41:20;;;;;;;34.58;16.98;;;;;;;0.56;79.60;99370.09;4935230;28;20049;-88
2022/12/11 10:43:53;;;;;;;35.83;15.07;;;;;;;0.59;79.25;99358.63;4939717;28;20109;-87
2022/12/11 10:46:24;;;;;;;30.67;13.60;;;;;;;0.45;79.14;99369.00;4950439;28;20050;-88
2022/12/11 10:48:59;;;;;;;33.78;15.05;;;;;;;0.44;79.95;99360.31;4980142;28;20051;-88
2022/12/11 10:51:30;;;;;;;37.38;14.85;;;;;;;0.50;79.63;99353.91;4967407;28;20482;-88
2022/12/11 10:54:26;;;;;;;41.80;16.63;;;;;;;0.40;79.65;99364.84;4967533;28;20494;-87
2022/12/11 10:56:55;;;;;;;37.22;16.08;;;;;;;0.47;80.32;99354.91;4913315;28;20387;-90
2022/12/11 10:59:36;;;;;;;39.15;16.08;;;;;;;0.44;79.54;99344.66;4936756;28;20124;-89
2022/12/11 11:02:17;;;;;;;40.72;16.40;;;;;;;0.47;79.76;99344.47;4981356;28;20098;-90
2022/12/11 11:04:46;;;;;;;36.88;16.10;;;;;;;0.48;80.05;99351.38;4948933;28;20050;-90
2022/12/11 11:07:23;;;;;;;39.33;16.50;;;;;;;0.47;80.38;99347.09;4942722;28;20054;-90
2022/12/11 11:10:12;;;;;;;42.00;17.83;;;;;;;0.42;80.02;99347.31;4995421;28;20081;-91
2022/12/11 11:12:45;;;;;;;38.90;16.45;;;;;;;0.42;79.91;99342.09;4953308;28;20457;-90
2022/12/11 11:15:27;;;;;;;42.17;17.42;;;;;;;0.40;80.37;99346.56;4967344;28;20117;-88
2022/12/11 11:18:24;;;;;;;41.08;17.33;;;;;;;0.46;80.22;99341.94;4961446;28;20073;-88
2022/12/11 11:20:53;;;;;;;47.15;18.63;;;;;;;0.41;80.28;99340.44;4968749;28;20133;-87
2022/12/11 11:23:24;;;;;;;43.75;17.85;;;;;;;0.43;80.37;99341.19;4983010;28;20057;-87
2022/12/11 11:25:52;;;;;;;38.35;16.65;;;;;;;0.47;80.63;99336.63;4972115;28;20046;-87
2022/12/11 11:28:25;;;;;;;44.60;18.17;;;;;;;0.48;80.56;99337.47;4969223;28;20046;-87
2022/12/11 11:31:13;;;;;;;40.92;17.50;;;;;;;0.38;80.11;99335.38;4969244;28;20050;-93
2022/12/11 11:33:55;;;;;;;49.88;19.50;;;;;;;0.40;80.04;99327.44;4918057;28;20043;-92
2022/12/11 11:36:30;;;;;;;49.45;18.90;;;;;;;0.41;80.30;99332.59;4934362;28;20124;-88
2022/12/11 11:39:25;;;;;;;48.20;19.55;;;;;;;0.43;80.98;99327.28;4974742;28;20777;-86
2022/12/11 11:42:03;;;;;;;53.60;20.45;;;;;;;0.43;81.01;99325.53;4937131;28;20053;-88
2022/12/11 11:44:43;;;;;;;47.83;18.52;;;;;;;0.41;80.52;99323.94;4965288;28;20042;-87
2022/12/11 11:47:25;;;;;;;48.28;19.70;;;;;;;0.46;80.17;99321.91;4967200;28;20054;-87
2022/12/11 11:50:07;;;;;;;47.08;19.17;;;;;;;0.38;80.30;99324.06;4940636;28;20426;-88
2022/12/11 11:52:52;;;;;;;46.67;18.73;;;;;;;0.39;80.67;99318.78;4938578;28;20046;-88
2022/12/11 11:55:32;;;;;;;47.30;19.75;;;;;;;0.51;80.10;99312.03;4969270;28;20069;-88
2022/12/11 11:58:04;;;;;;;45.03;16.42;;;;;;;0.47;79.69;99313.13;4955596;28;20077;-88
2022/12/11 12:00:39;;;;;;;43.38;16.83;;;;;;;0.46;80.23;99306.22;4969732;28;20112;-89
2022/12/11 12:03:14;;;;;;;37.78;16.02;;;;;;;0.46;79.73;99307.97;4954660;28;20068;-89
2022/12/11 12:06:09;;;;;;;39.22;17.23;;;;;;;0.42;79.46;99305.53;4947978;28;20050;-89
2022/12/11 12:08:50;;;;;;;41.53;17.75;;;;;;;0.44;79.71;99302.84;4939940;28;20374;-89
2022/12/11 12:11:24;;;;;;;40.70;15.48;;;;;;;0.43;80.16;99302.03;4941985;28;20043;-89